createdAt,value
2022-08-17T00:01:32.753Z,100948.69
2022-08-17T00:04:19.066Z,100956.84
2022-08-17T00:06:46.060Z,100957.94
2022-08-17T00:09:18.977Z,100961.97
2022-08-17T00:12:41.556Z,100951.94
2022-08-17T00:14:35.045Z,100949.78
2022-08-17T00:17:03.621Z,100947.31
2022-08-17T00:19:29.989Z,100935.97
2022-08-17T00:22:34.267Z,100942.75
2022-08-17T00:24:46.797Z,100934.09
2022-08-17T00:27:13.223Z,100931.91
2022-08-17T00:29:39.686Z,100922.09
2022-08-17T00:33:15.012Z,100930.72
2022-08-17T00:34:53.101Z,100923.09
2022-08-17T00:37:19.550Z,100924.75
2022-08-17T00:39:46.081Z,100913.09
2022-08-17T00:42:18.154Z,100895.88
2022-08-17T00:44:45.746Z,100917.47
2022-08-17T00:47:12.236Z,100912.06
2022-08-17T00:49:38.654Z,100909.09
2022-08-17T00:52:15.281Z,100892.25
2022-08-17T00:54:44.774Z,100900.75
2022-08-17T00:57:17.391Z,100896.91
2022-08-17T00:59:51.145Z,100886.31
2022-08-17T01:02:34.881Z,100891.19
2022-08-17T01:05:12.417Z,100892.53
2022-08-17T01:07:39.268Z,100893.78
2022-08-17T01:10:58.228Z,100895.31
2022-08-17T01:12:56.729Z,100889.06
2022-08-17T01:15:23.380Z,100878.34
2022-08-17T01:17:50.115Z,100891.78
2022-08-17T01:20:16.887Z,100893.13
2022-08-17T01:22:43.385Z,100896.66
2022-08-17T01:25:12.707Z,100886.03
2022-08-17T01:27:40.642Z,100906.22
2022-08-17T01:30:57.329Z,100885.25
2022-08-17T01:32:56.552Z,100903.56
2022-08-17T01:35:22.996Z,100916.09
2022-08-17T01:37:49.810Z,100919.09
2022-08-17T01:40:31.184Z,100927.47
2022-08-17T01:43:12.182Z,100923.09
2022-08-17T01:45:45.717Z,100936.22
2022-08-17T01:48:13.183Z,100939.47
2022-08-17T01:50:42.787Z,100941.94
2022-08-17T01:53:13.811Z,100942.50
2022-08-17T01:55:45.678Z,100958.53
2022-08-17T01:58:12.402Z,100987.34
2022-08-17T02:00:59.353Z,100988.06
2022-08-17T02:03:26.802Z,100994.50
2022-08-17T02:05:53.350Z,100986.72
2022-08-17T02:08:21.465Z,101000.50
2022-08-17T02:11:11.378Z,100987.75
2022-08-17T02:13:38.289Z,100988.25
2022-08-17T02:16:04.731Z,100993.94
2022-08-17T02:18:31.155Z,101011.31
2022-08-17T02:20:57.613Z,101031.88
2022-08-17T02:23:26.620Z,101033.19
2022-08-17T02:25:57.612Z,101013.84
2022-08-17T02:28:24.145Z,101021.59
2022-08-17T02:31:02.254Z,101014.50
2022-08-17T02:33:42.659Z,101008.63
2022-08-17T02:36:11.995Z,101007.75
2022-08-17T02:38:39.766Z,101022.94
2022-08-17T02:41:06.653Z,101033.84
2022-08-17T02:43:33.461Z,101038.94
2022-08-17T02:45:59.983Z,101041.41
2022-08-17T02:48:31.596Z,101041.88
2022-08-17T02:50:59.674Z,101037.19
2022-08-17T02:53:26.513Z,101009.22
2022-08-17T02:55:53.384Z,101005.50
2022-08-17T02:58:34.675Z,100986.59
2022-08-17T03:01:03.559Z,101001.13
2022-08-17T03:03:30.024Z,100998.44
2022-08-17T03:05:56.514Z,101004.06
2022-08-17T03:08:23.351Z,101018.34
2022-08-17T03:10:50.417Z,101003.84
2022-08-17T03:13:17.463Z,100999.47
2022-08-17T03:15:45.803Z,100983.41
2022-08-17T03:18:24.108Z,100990.63
2022-08-17T03:20:55.850Z,100976.91
2022-08-17T03:23:24.104Z,100971.97
2022-08-17T03:25:53.786Z,100981.47
2022-08-17T03:28:21.738Z,100985.75
2022-08-17T03:30:48.301Z,100978.84
2022-08-17T03:33:14.825Z,100969.09
2022-08-17T03:35:41.443Z,100969.34
2022-08-17T03:38:10.463Z,100966.88
2022-08-17T03:40:56.361Z,100970.88
2022-08-17T03:43:25.213Z,100973.44
2022-08-17T03:46:28.943Z,100971.91
2022-08-17T03:49:15.274Z,100977.31
2022-08-17T03:52:00.563Z,100978.03
2022-08-17T03:54:45.472Z,100978.25
2022-08-17T03:57:12.485Z,100978.16
2022-08-17T03:59:39.663Z,100980.22
2022-08-17T04:02:22.764Z,100954.44
2022-08-17T04:04:50.992Z,100959.47
2022-08-17T04:07:19.833Z,100974.50
2022-08-17T04:09:46.393Z,100976.75
2022-08-17T04:12:16.107Z,100970.19
2022-08-17T04:14:52.269Z,100974.31
2022-08-17T04:17:21.625Z,100968.97
2022-08-17T04:19:48.165Z,100957.91
2022-08-17T04:22:31.232Z,100953.19
2022-08-17T04:25:15.522Z,100955.41
2022-08-17T04:27:41.983Z,100943.91
2022-08-17T04:30:09.595Z,100943.66
2022-08-17T04:33:05.865Z,100947.09
2022-08-17T04:35:36.796Z,100943.31
2022-08-17T04:38:03.727Z,100938.75
2022-08-17T04:40:48.947Z,100936.88
2022-08-17T04:43:18.974Z,100930.97
2022-08-17T04:45:56.684Z,100927.09
2022-08-17T04:48:36.063Z,100950.06
2022-08-17T04:51:06.082Z,100950.06
2022-08-17T04:53:32.587Z,100946.53
2022-08-17T04:55:59.136Z,100945.72
2022-08-17T04:58:25.584Z,100930.06
2022-08-17T05:00:52.067Z,100946.63
2022-08-17T05:03:18.729Z,100937.78
2022-08-17T05:05:49.584Z,100943.75
2022-08-17T05:08:19.123Z,100953.03
2022-08-17T05:10:46.775Z,100953.03
2022-08-17T05:13:16.966Z,100953.28
2022-08-17T05:15:47.670Z,100952.53
2022-08-17T05:18:15.538Z,100965.00
2022-08-17T05:20:42.540Z,100962.28
2022-08-17T05:23:13.725Z,100938.84
2022-08-17T05:25:42.982Z,100953.63
2022-08-17T05:28:14.418Z,100971.00
2022-08-17T05:30:43.256Z,100962.63
2022-08-17T05:33:16.537Z,100966.66
2022-08-17T05:35:46.959Z,100966.16
2022-08-17T05:38:16.089Z,100961.25
2022-08-17T05:40:43.518Z,100966.75
2022-08-17T05:43:13.123Z,100970.28
2022-08-17T05:45:55.907Z,100969.13
2022-08-17T05:48:39.524Z,100971.66
2022-08-17T05:51:24.399Z,100971.66
2022-08-17T05:54:06.108Z,100972.97
2022-08-17T05:56:52.104Z,100955.16
2022-08-17T05:59:40.381Z,100978.94
2022-08-17T06:02:21.968Z,100995.75
2022-08-17T06:05:14.305Z,101000.84
2022-08-17T06:07:58.842Z,101013.06
2022-08-17T06:10:43.803Z,101012.25
2022-08-17T06:13:29.341Z,101004.78
2022-08-17T06:16:05.007Z,101000.47
2022-08-17T06:19:02.064Z,101003.88
2022-08-17T06:21:34.303Z,101009.53
2022-08-17T06:24:23.880Z,101011.66
2022-08-17T06:26:51.006Z,101021.44
2022-08-17T06:29:23.682Z,101026.84
2022-08-17T06:31:50.973Z,101013.66
2022-08-17T06:34:17.371Z,101012.34
2022-08-17T06:36:55.753Z,101010.94
2022-08-17T06:39:52.723Z,101011.75
2022-08-17T06:42:59.919Z,101003.06
2022-08-17T06:45:20.132Z,101006.91
2022-08-17T06:47:59.341Z,101006.66
2022-08-17T06:50:49.196Z,101002.34
2022-08-17T06:53:27.335Z,101006.41
2022-08-17T06:56:10.352Z,101011.38
2022-08-17T06:58:40.117Z,101002.66
2022-08-17T07:01:17.871Z,101005.00
2022-08-17T07:03:54.742Z,101000.16
2022-08-17T07:06:26.183Z,100988.31
2022-08-17T07:09:08.222Z,100991.09
2022-08-17T07:11:53.893Z,100991.91
2022-08-17T07:14:37.953Z,100992.09
2022-08-17T07:17:09.317Z,100994.38
2022-08-17T07:19:40.640Z,101000.25
2022-08-17T07:22:23.938Z,100965.81
2022-08-17T07:25:02.343Z,100979.75
2022-08-17T07:27:51.178Z,101004.38
2022-08-17T07:30:23.002Z,101012.75
2022-08-17T07:33:02.299Z,100990.00
2022-08-17T07:35:37.731Z,101022.41
2022-08-17T07:38:25.330Z,101019.44
2022-08-17T07:41:05.939Z,101020.84
2022-08-17T07:43:41.219Z,101022.41
2022-08-17T07:46:42.177Z,101024.41
2022-08-17T07:49:08.517Z,101036.09
2022-08-17T07:51:50.453Z,101006.00
2022-08-17T07:54:22.129Z,101034.47
2022-08-17T07:56:52.418Z,100998.59
2022-08-17T07:59:34.116Z,101034.72
2022-08-17T08:02:06.318Z,101050.81
2022-08-17T08:05:00.495Z,101023.72
2022-08-17T08:07:52.244Z,101046.69
2022-08-17T08:10:45.323Z,101047.19
2022-08-17T08:13:23.273Z,101046.59
2022-08-17T08:15:55.701Z,101050.63
2022-08-17T08:18:54.966Z,101056.53
2022-08-17T08:21:29.132Z,101056.88
2022-08-17T08:24:17.802Z,101055.69
2022-08-17T08:27:08.015Z,101065.34
2022-08-17T08:30:04.813Z,101061.75
2022-08-17T08:32:54.029Z,101064.81
2022-08-17T08:35:37.241Z,101072.19
2022-08-17T08:38:26.837Z,101068.66
2022-08-17T08:41:16.468Z,101083.59
2022-08-17T08:44:00.710Z,101074.41
2022-08-17T08:46:47.099Z,101049.84
2022-08-17T08:50:01.436Z,101065.88
2022-08-17T08:52:39.953Z,101069.66
2022-08-17T08:57:43.951Z,101077.03
2022-08-17T09:00:24.546Z,101082.41
2022-08-17T09:02:50.959Z,101083.13
2022-08-17T09:05:56.005Z,101079.00
2022-08-17T09:08:44.428Z,101076.28
2022-08-17T09:11:26.534Z,101081.53
2022-08-17T09:14:21.863Z,101099.28
2022-08-17T09:17:12.622Z,101101.34
2022-08-17T09:19:53.026Z,101100.91
2022-08-17T09:22:31.597Z,101104.84
2022-08-17T09:25:15.690Z,101104.34
2022-08-17T09:27:57.277Z,101125.53
2022-08-17T09:30:36.298Z,101124.78
2022-08-17T09:33:07.975Z,101130.69
2022-08-17T09:35:49.318Z,101141.72
2022-08-17T09:38:21.653Z,101159.63
2022-08-17T09:41:15.230Z,101153.25
2022-08-17T09:43:53.599Z,101145.75
2022-08-17T09:46:28.390Z,101152.44
2022-08-17T09:49:07.244Z,101158.91
2022-08-17T09:51:48.964Z,101166.22
2022-08-17T09:54:44.619Z,101162.53
2022-08-17T09:57:32.206Z,101156.13
2022-08-17T10:00:17.367Z,101160.50
2022-08-17T10:03:21.803Z,101158.28
2022-08-17T10:06:10.027Z,101148.97
2022-08-17T10:08:52.524Z,101137.47
2022-08-17T10:11:48.421Z,101163.53
2022-08-17T10:14:44.537Z,101168.63
2022-08-17T10:17:24.581Z,101168.03
2022-08-17T10:20:20.896Z,101162.38
2022-08-17T10:23:13.103Z,101172.69
2022-08-17T10:26:04.150Z,101160.97
2022-08-17T10:28:38.938Z,101155.06
2022-08-17T10:31:33.892Z,101152.84
2022-08-17T10:34:28.803Z,101151.53
2022-08-17T10:37:14.252Z,101147.28
2022-08-17T10:39:52.936Z,101137.84
2022-08-17T10:42:33.093Z,101137.59
2022-08-17T10:45:06.947Z,101136.53
2022-08-17T10:48:05.082Z,101128.00
2022-08-17T10:51:01.548Z,101124.88
2022-08-17T10:53:38.744Z,101119.78
2022-08-17T10:56:13.118Z,101114.88
2022-08-17T10:58:55.914Z,101116.25
2022-08-17T11:02:04.332Z,101109.94
2022-08-17T11:04:36.760Z,101111.09
2022-08-17T11:07:13.551Z,101104.28
2022-08-17T11:10:17.564Z,101097.47
2022-08-17T11:12:52.530Z,101085.06
2022-08-17T11:15:42.082Z,101094.91
2022-08-17T11:18:38.051Z,101093.84
2022-08-17T11:21:25.639Z,101094.91
2022-08-17T11:24:18.952Z,101105.28
2022-08-17T11:27:02.594Z,101098.19
2022-08-17T11:29:56.743Z,101099.59
2022-08-17T11:32:47.690Z,101112.41
2022-08-17T11:35:31.447Z,101111.50
2022-08-17T11:38:17.337Z,101125.19
2022-08-17T11:41:02.751Z,101129.31
2022-08-17T11:43:49.019Z,101127.47
2022-08-17T11:46:51.677Z,101135.47
2022-08-17T11:50:01.611Z,101115.50
2022-08-17T11:52:47.213Z,101132.44
2022-08-17T11:55:36.372Z,101143.91
2022-08-17T11:58:23.743Z,101152.84
2022-08-17T12:00:57.168Z,101152.13
2022-08-17T12:03:33.287Z,101154.59
2022-08-17T12:06:07.991Z,101156.81
2022-08-17T12:08:43.359Z,101159.84
2022-08-17T12:11:57.832Z,101149.91
2022-08-17T12:14:20.160Z,101152.63
2022-08-17T12:17:39.556Z,101163.38
2022-08-17T12:20:15.515Z,101157.88
2022-08-17T12:22:54.899Z,101166.66
2022-08-17T12:25:32.971Z,101153.84
2022-08-17T12:28:06.321Z,101159.59
2022-08-17T12:30:34.004Z,101164.28
2022-08-17T12:33:00.699Z,101152.06
2022-08-17T12:35:33.164Z,101143.28
2022-08-17T12:38:01.137Z,101155.50
2022-08-17T12:40:33.753Z,101154.19
2022-08-17T12:43:19.994Z,101148.19
2022-08-17T12:45:56.927Z,101140.97
2022-08-17T12:48:25.914Z,101158.38
2022-08-17T12:50:59.844Z,101117.91
2022-08-17T12:53:30.148Z,101147.53
2022-08-17T12:55:58.915Z,101151.63
2022-08-17T12:58:30.449Z,101150.59
2022-08-17T13:01:02.116Z,101132.13
2022-08-17T13:03:36.607Z,101132.91
2022-08-17T13:06:11.072Z,101141.88
2022-08-17T13:08:48.061Z,101139.66
2022-08-17T13:11:14.566Z,101148.69
2022-08-17T13:13:43.856Z,101125.53
2022-08-17T13:16:14.319Z,101137.63
2022-08-17T13:18:42.656Z,101134.56
2022-08-17T13:21:18.861Z,101132.13
2022-08-17T13:24:11.420Z,101114.94
2022-08-17T13:26:45.315Z,101115.53
2022-08-17T13:29:26.054Z,101115.84
2022-08-17T13:32:16.820Z,101107.88
2022-08-17T13:35:11.972Z,101098.63
2022-08-17T13:37:40.621Z,101105.84
2022-08-17T13:40:08.988Z,101102.06
2022-08-17T13:42:51.510Z,101114.03
2022-08-17T13:45:35.492Z,101102.63
2022-08-17T13:48:13.697Z,101105.09
2022-08-17T13:50:59.537Z,101101.31
2022-08-17T13:53:31.343Z,101107.00
2022-08-17T13:56:03.253Z,101096.41
2022-08-17T13:58:35.948Z,101098.63
2022-08-17T14:01:52.840Z,101092.13
2022-08-17T14:04:23.947Z,101090.75
2022-08-17T14:06:58.031Z,101093.69
2022-08-17T14:09:41.052Z,101096.00
2022-08-17T14:12:12.647Z,101085.50
2022-08-17T14:14:39.590Z,101106.31
2022-08-17T14:17:06.123Z,101106.31
2022-08-17T14:19:35.076Z,101105.50
2022-08-17T14:22:02.045Z,101098.13
2022-08-17T14:24:35.184Z,101103.63
2022-08-17T14:27:03.620Z,101095.38
2022-08-17T14:29:31.625Z,101094.88
2022-08-17T14:32:03.195Z,101089.31
2022-08-17T14:34:29.689Z,101093.59
2022-08-17T14:36:56.993Z,101086.53
2022-08-17T14:39:23.423Z,101094.19
2022-08-17T14:41:50.225Z,101092.53
2022-08-17T14:44:17.026Z,101093.59
2022-08-17T14:46:44.680Z,101098.44
2022-08-17T14:49:12.945Z,101097.69
2022-08-17T14:51:43.709Z,101103.78
2022-08-17T14:54:11.584Z,101096.97
2022-08-17T14:57:00.874Z,101093.09
2022-08-17T14:59:44.718Z,101092.19
2022-08-17T15:02:11.472Z,101083.19
2022-08-17T15:04:41.971Z,101093.94
2022-08-17T15:07:11.575Z,101102.94
2022-08-17T15:09:37.946Z,101091.94
2022-08-17T15:12:06.577Z,101087.84
2022-08-17T15:14:35.420Z,101094.59
2022-08-17T15:17:03.523Z,101080.88
2022-08-17T15:19:30.268Z,101089.50
2022-08-17T15:21:56.779Z,101091.47
2022-08-17T15:24:23.285Z,101106.22
2022-08-17T15:26:49.920Z,101100.81
2022-08-17T15:29:16.316Z,101103.09
2022-08-17T15:31:43.380Z,101104.75
2022-08-17T15:34:09.779Z,101117.94
2022-08-17T15:36:36.258Z,101113.03
2022-08-17T15:39:03.103Z,101119.09
2022-08-17T15:41:30.097Z,101131.09
2022-08-17T15:43:56.922Z,101121.06
2022-08-17T15:46:25.700Z,101099.97
2022-08-17T15:48:58.278Z,101122.22
2022-08-17T15:51:30.932Z,101130.25
2022-08-17T15:54:22.191Z,101119.47
2022-08-17T15:56:49.093Z,101110.00
2022-08-17T15:59:15.525Z,101113.59
2022-08-17T16:03:14.651Z,101113.59
2022-08-17T16:04:31.023Z,101108.69
2022-08-17T16:06:59.401Z,101110.81
2022-08-17T16:09:25.818Z,101100.16
2022-08-17T16:11:55.326Z,101109.94
2022-08-17T16:14:22.613Z,101106.16
2022-08-17T16:16:50.484Z,101111.84
2022-08-17T16:19:17.035Z,101111.06
2022-08-17T16:21:43.501Z,101112.38
2022-08-17T16:24:13.268Z,101110.00
2022-08-17T16:26:40.467Z,101102.88
2022-08-17T16:29:07.782Z,101106.97
2022-08-17T16:31:35.975Z,101103.69
2022-08-17T16:34:17.006Z,101103.69
2022-08-17T16:36:54.835Z,101110.19
2022-08-17T16:39:28.103Z,101115.94
2022-08-17T16:41:56.072Z,101118.81
2022-08-17T16:44:22.818Z,101124.00
2022-08-17T16:46:50.197Z,101114.91
2022-08-17T16:49:35.088Z,101123.34
2022-08-17T16:52:03.437Z,101125.25
2022-08-17T16:54:30.258Z,101119.53
2022-08-17T16:56:56.672Z,101118.94
2022-08-17T16:59:31.240Z,101121.66
2022-08-17T17:02:12.841Z,101122.72
2022-08-17T17:04:45.983Z,101121.34
2022-08-17T17:07:49.766Z,101133.31
2022-08-17T17:10:20.440Z,101113.44
2022-08-17T17:12:59.564Z,101131.75
2022-08-17T17:15:45.176Z,101132.25
2022-08-17T17:18:13.675Z,101127.06
2022-08-17T17:20:47.733Z,101132.00
2022-08-17T17:23:23.367Z,101138.19
2022-08-17T17:26:03.630Z,101138.88
2022-08-17T17:28:35.754Z,101138.06
2022-08-17T17:31:20.545Z,101134.22
2022-08-17T17:33:56.966Z,101137.50
2022-08-17T17:36:31.047Z,101121.34
2022-08-17T17:39:05.259Z,101133.56
2022-08-17T17:41:49.173Z,101142.84
2022-08-17T17:44:20.084Z,101144.16
2022-08-17T17:46:54.848Z,101133.22
2022-08-17T17:49:21.460Z,101137.41
2022-08-17T17:52:11.150Z,101136.91
2022-08-17T17:54:52.244Z,101141.84
2022-08-17T17:57:26.672Z,101144.22
2022-08-17T18:00:00.875Z,101148.25
2022-08-17T18:02:52.147Z,101142.25
2022-08-17T18:05:28.173Z,101153.09
2022-08-17T18:08:11.241Z,101136.94
2022-08-17T18:10:58.361Z,101148.69
2022-08-17T18:13:43.756Z,101132.28
2022-08-17T18:16:13.001Z,101145.41
2022-08-17T18:18:46.038Z,101153.53
2022-08-17T18:21:46.464Z,101158.13
2022-08-17T18:24:14.024Z,101161.00
2022-08-17T18:26:44.966Z,101167.84
2022-08-17T18:29:35.759Z,101168.06
2022-08-17T18:32:22.825Z,101169.13
2022-08-17T18:34:53.839Z,101170.75
2022-08-17T18:37:35.049Z,101167.19
2022-08-17T18:40:16.663Z,101176.94
2022-08-17T18:42:58.567Z,101173.41
2022-08-17T18:45:48.415Z,101177.19
2022-08-17T18:48:28.351Z,101181.22
2022-08-17T18:51:01.491Z,101180.38
2022-08-17T18:53:41.473Z,101176.03
2022-08-17T18:56:31.502Z,101180.38
2022-08-17T18:59:09.827Z,101180.88
2022-08-17T19:01:53.334Z,101182.78
2022-08-17T19:04:40.041Z,101193.84
2022-08-17T19:07:24.646Z,101190.56
2022-08-17T19:10:05.327Z,101185.31
2022-08-17T19:12:40.043Z,101192.09
2022-08-17T19:15:12.446Z,101189.91
2022-08-17T19:18:05.604Z,101196.88
2022-08-17T19:20:44.446Z,101197.94
2022-08-17T19:23:27.531Z,101200.88
2022-08-17T19:25:58.488Z,101195.47
2022-08-17T19:28:29.584Z,101200.06
2022-08-17T19:31:04.075Z,101205.47
2022-08-17T19:33:31.538Z,101205.97
2022-08-17T19:36:09.995Z,101210.81
2022-08-17T19:38:48.666Z,101202.94
2022-08-17T19:41:24.227Z,101206.13
2022-08-17T19:44:06.216Z,101207.66
2022-08-17T19:47:00.912Z,101211.44
2022-08-17T19:49:56.982Z,101209.47
2022-08-17T19:52:36.282Z,101202.88
2022-08-17T19:55:23.521Z,101200.44
2022-08-17T19:58:10.216Z,101196.88
2022-08-17T20:00:46.922Z,101200.19
2022-08-17T20:03:50.409Z,101202.56
2022-08-17T20:06:18.708Z,101205.00
2022-08-17T20:09:15.057Z,101205.00
2022-08-17T20:11:46.875Z,101200.69
2022-08-17T20:14:18.767Z,101201.16
2022-08-17T20:16:46.562Z,101204.56
2022-08-17T20:19:22.186Z,101208.00
2022-08-17T20:22:09.465Z,101207.19
2022-08-17T20:24:38.934Z,101204.94
2022-08-17T20:27:16.496Z,101201.41
2022-08-17T20:29:55.256Z,101219.53
2022-08-17T20:32:26.237Z,101207.06
2022-08-17T20:35:20.792Z,101207.88
2022-08-17T20:37:53.961Z,101208.25
2022-08-17T20:40:25.940Z,101198.25
2022-08-17T20:42:52.748Z,101208.34
2022-08-17T20:45:22.121Z,101206.25
2022-08-17T20:48:18.737Z,101207.53
2022-08-17T20:50:44.049Z,101212.94
2022-08-17T20:53:15.217Z,101213.19
2022-08-17T20:55:52.626Z,101223.44
2022-08-17T20:58:21.192Z,101223.88
2022-08-17T21:00:56.910Z,101221.41
2022-08-17T21:03:23.345Z,101233.31
2022-08-17T21:06:00.348Z,101234.03
2022-08-17T21:08:30.663Z,101228.06
2022-08-17T21:10:58.478Z,101236.88
2022-08-17T21:13:40.955Z,101237.84
2022-08-17T21:16:24.331Z,101235.81
2022-08-17T21:19:17.811Z,101239.59
2022-08-17T21:22:12.657Z,101233.84
2022-08-17T21:25:03.152Z,101235.47
2022-08-17T21:28:08.366Z,101217.84
2022-08-17T21:30:37.107Z,101219.97
2022-08-17T21:33:18.647Z,101231.84
2022-08-17T21:35:53.869Z,101237.97
2022-08-17T21:38:50.286Z,101225.41
2022-08-17T21:41:29.538Z,101227.03
2022-08-17T21:44:06.393Z,101218.25
2022-08-17T21:46:39.102Z,101234.09
2022-08-17T21:49:13.444Z,101237.84
2022-08-17T21:51:51.383Z,101239.50
2022-08-17T21:54:20.446Z,101249.25
2022-08-17T21:56:48.460Z,101216.84
2022-08-17T21:59:28.820Z,101248.00
2022-08-17T22:02:18.165Z,101263.75
2022-08-17T22:05:00.316Z,101262.81
2022-08-17T22:07:50.766Z,101275.84
2022-08-17T22:10:41.905Z,101273.50
2022-08-17T22:13:19.878Z,101281.84
2022-08-17T22:16:15.243Z,101244.44
2022-08-17T22:18:42.837Z,101273.03
2022-08-17T22:21:09.308Z,101268.09
2022-08-17T22:23:58.635Z,101270.78
2022-08-17T22:26:47.102Z,101268.69
2022-08-17T22:29:57.366Z,101273.25
2022-08-17T22:32:45.073Z,101277.16
2022-08-17T22:35:35.740Z,101286.19
2022-08-17T22:38:25.384Z,101273.97
2022-08-17T22:40:54.480Z,101280.22
2022-08-17T22:43:26.055Z,101283.03
2022-08-17T22:45:55.694Z,101281.50
2022-08-17T22:48:27.153Z,101285.38
2022-08-17T22:51:12.372Z,101277.38
2022-08-17T22:54:05.551Z,101251.84
2022-08-17T22:56:50.898Z,101280.19
2022-08-17T22:59:55.556Z,101282.66
2022-08-17T23:02:29.941Z,101274.28
2022-08-17T23:05:15.758Z,101277.25
2022-08-17T23:07:44.964Z,101270.66
2022-08-17T23:10:13.291Z,101277.00
2022-08-17T23:12:40.310Z,101275.97
2022-08-17T23:15:16.901Z,101278.66
2022-08-17T23:17:45.044Z,101267.84
2022-08-17T23:20:14.162Z,101274.88
2022-08-17T23:22:51.794Z,101266.78
2022-08-17T23:25:25.822Z,101256.56
2022-08-17T23:27:52.516Z,101272.41
2022-08-17T23:30:19.295Z,101271.84
2022-08-17T23:32:53.354Z,101267.72
2022-08-17T23:35:20.360Z,101270.44
2022-08-17T23:38:07.526Z,101278.31
2022-08-17T23:40:34.094Z,101268.28
2022-08-17T23:43:00.568Z,101271.84
2022-08-17T23:45:31.273Z,101273.72
2022-08-17T23:47:57.645Z,101269.59
2022-08-17T23:50:24.965Z,101272.78
2022-08-17T23:52:56.441Z,101279.72
2022-08-17T23:55:22.873Z,101288.69
2022-08-17T23:57:50.010Z,101290.06
